Time;durP1;ratioP1;P1;durP2;ratioP2;P2;SDS_P1;SDS_P2;PMS_P1;PMS_P2;Temp;Humidity;BMP_temperature;BMP_pressure;BME280_temperature;BME280_humidity;BME280_pressure;Samples;Min_cycle;Max_cycle;Signal;HPM_P1;HPM_P2
2022/02/21 00:00:14;;;;;;;;;6.50;3.00;;;;;10.96;61.86;100637.38;6251289;22;45575;-87
2022/02/21 00:02:49;;;;;;;;;7.25;3.75;;;;;10.97;61.50;100660.19;6279657;22;45267;-85
2022/02/21 00:05:54;;;;;;;;;11.50;4.25;;;;;10.88;60.17;100646.19;6278578;22;47064;-86
2022/02/21 00:09:18;;;;;;;;;11.50;7.25;;;;;10.78;59.57;100656.81;6254825;22;45242;-89
2022/02/21 00:23:59;;;;;;;;;;;;;;;;;;;;;
2022/02/21 00:26:47;;;;;;;;;5.25;3.75;;;;;10.57;57.80;100715.72;6032933;23;69250;-86
2022/02/21 00:35:53;;;;;;;;;;;;;;;;;;;;;
2022/02/21 00:38:49;;;;;;;;;5.00;3.00;;;;;10.29;56.26;100721.94;6096576;23;67998;-85
2022/02/21 00:41:19;;;;;;;;;2.00;1.00;;;;;10.29;55.71;100757.06;6237222;22;45432;-84
2022/02/21 00:43:55;;;;;;;;;2.75;2.50;;;;;10.20;55.75;100732.47;6279375;22;45878;-85
2022/02/21 00:46:58;;;;;;;;;;;;;;;;;;;;;
2022/02/21 00:49:50;;;;;;;;;3.75;2.00;;;;;10.06;56.66;100766.72;6280956;22;68158;-85
2022/02/21 00:52:15;;;;;;;;;1.75;1.00;;;;;9.91;56.74;100771.06;6278392;22;45469;-86
2022/02/21 00:58:22;;;;;;;;;2.00;1.50;;;;;9.59;59.32;100823.66;6252300;22;45223;-84
2022/02/21 01:01:19;;;;;;;;;2.50;1.25;;;;;9.28;61.22;100835.84;6251915;22;45608;-86
2022/02/21 01:03:54;;;;;;;;;2.25;1.00;;;;;9.04;62.08;100848.03;6280491;22;45303;-85
2022/02/21 01:06:29;;;;;;;;;1.00;0.00;;;;;8.86;62.05;100852.31;6251049;22;46220;-86
2022/02/21 01:09:06;;;;;;;;;0.50;0.25;;;;;8.70;62.24;100823.34;6252135;22;45813;-85
2022/02/21 01:11:32;;;;;;;;;1.00;1.00;;;;;8.55;61.81;100812.78;6253567;22;45394;-83
2022/02/21 01:13:58;;;;;;;;;0.75;0.00;;;;;8.33;62.43;100782.88;6253996;22;45387;-84
2022/02/21 01:16:27;;;;;;;;;0.25;0.25;;;;;8.39;62.24;100817.03;6252147;22;48095;-86
2022/02/21 01:18:53;;;;;;;;;1.25;1.00;;;;;8.32;62.04;100813.50;6255054;22;45271;-86
2022/02/21 01:21:19;;;;;;;;;2.00;0.00;;;;;8.11;62.25;100797.59;6256006;22;45425;-86
2022/02/21 01:23:45;;;;;;;;;3.25;1.00;;;;;8.14;62.23;100822.09;6256832;22;45370;-87
2022/02/21 01:26:11;;;;;;;;;1.50;1.00;;;;;8.05;62.29;100814.16;6284609;22;45375;-88
2022/02/21 01:28:36;;;;;;;;;3.00;1.00;;;;;8.09;62.41;100828.19;6256559;22;45390;-88
2022/02/21 01:31:02;;;;;;;;;0.25;0.25;;;;;8.07;62.60;100822.03;6257296;22;45355;-87
2022/02/21 01:33:30;;;;;;;;;1.00;1.00;;;;;7.98;62.86;100832.47;6282014;22;45632;-87
2022/02/21 01:35:57;;;;;;;;;0.00;0.00;;;;;8.09;63.68;100893.72;6284470;22;45219;-87
2022/02/21 01:38:22;;;;;;;;;1.00;0.00;;;;;8.03;64.25;100926.00;6255291;22;45195;-85
2022/02/21 01:40:48;;;;;;;;;0.50;0.25;;;;;7.84;63.70;100869.91;6284403;22;45152;-87
2022/02/21 01:43:14;;;;;;;;;0.00;0.00;;;;;7.69;63.13;100836.56;6256120;22;45556;-87
2022/02/21 01:45:39;;;;;;;;;0.00;0.00;;;;;7.59;63.88;100849.56;6282655;22;47260;-87
2022/02/21 01:48:05;;;;;;;;;0.25;0.25;;;;;7.48;63.83;100870.41;6255676;22;45345;-87
2022/02/21 01:50:30;;;;;;;;;1.00;0.00;;;;;7.41;64.25;100874.72;6254904;22;45367;-86
2022/02/21 01:52:56;;;;;;;;;0.25;0.25;;;;;7.32;64.68;100855.38;6255123;22;45299;-87
2022/02/21 01:55:22;;;;;;;;;2.00;1.00;;;;;7.29;64.98;100853.59;6285337;22;46111;-87
2022/02/21 01:57:50;;;;;;;;;0.00;0.00;;;;;7.33;65.30;100865.88;6257011;22;45413;-87
2022/02/21 02:00:17;;;;;;;;;3.00;1.00;;;;;7.12;65.18;100818.50;6284508;22;45155;-87
2022/02/21 02:02:45;;;;;;;;;2.00;1.00;;;;;7.33;64.96;100851.94;6287140;22;45140;-87
2022/02/21 02:05:11;;;;;;;;;2.00;2.00;;;;;7.32;65.56;100840.53;6287118;22;47549;-88
2022/02/21 02:07:37;;;;;;;;;3.50;1.00;;;;;7.32;65.59;100844.91;6287359;22;45346;-88
2022/02/21 02:10:03;;;;;;;;;0.50;0.00;;;;;7.26;65.63;100833.50;6290369;22;45081;-88
2022/02/21 02:12:29;;;;;;;;;2.00;2.00;;;;;7.22;65.51;100826.50;6260817;22;44736;-87
2022/02/21 02:14:54;;;;;;;;;2.75;1.25;;;;;7.34;65.48;100835.34;6292634;22;46260;-87
2022/02/21 02:17:20;;;;;;;;;1.00;1.00;;;;;7.34;65.66;100832.72;6266717;22;45285;-87
2022/02/21 02:19:46;;;;;;;;;2.75;1.00;;;;;7.22;65.80;100807.28;6286806;22;45260;-86
2022/02/21 02:22:13;;;;;;;;;2.50;1.25;;;;;7.32;65.50;100829.19;6261382;22;45250;-87
2022/02/21 02:24:41;;;;;;;;;2.25;1.00;;;;;7.32;65.40;100829.19;6286738;22;45336;-87
2022/02/21 02:27:10;;;;;;;;;3.75;0.25;;;;;7.28;65.05;100818.69;6269727;22;44698;-87
2022/02/21 02:29:40;;;;;;;;;3.00;3.00;;;;;7.26;65.02;100812.56;6273799;22;45256;-87
2022/02/21 02:32:07;;;;;;;;;4.00;2.00;;;;;7.40;65.17;100835.41;6301252;22;44712;-88
2022/02/21 02:34:33;;;;;;;;;3.25;2.00;;;;;7.42;65.23;100831.06;6301694;22;46358;-87
2022/02/21 02:36:59;;;;;;;;;5.00;2.75;;;;;7.34;64.97;100820.50;6292658;22;45187;-88
2022/02/21 02:39:26;;;;;;;;;6.75;2.00;;;;;7.45;64.96;100833.72;6267397;22;45134;-89
2022/02/21 02:41:52;;;;;;;;;6.75;3.75;;;;;7.36;64.96;100824.03;6265120;22;44707;-88
2022/02/21 02:44:18;;;;;;;;;4.50;4.50;;;;;7.48;65.14;100839.88;6268323;22;47177;-88
2022/02/21 02:46:43;;;;;;;;;5.00;3.50;;;;;7.45;64.68;100831.09;6271430;22;44726;-88
2022/02/21 02:49:09;;;;;;;;;4.00;3.00;;;;;7.55;64.56;100834.69;6267315;22;44693;-87
2022/02/21 02:51:34;;;;;;;;;3.75;3.00;;;;;7.56;64.51;100839.06;6259502;22;45904;-88
2022/02/21 02:54:00;;;;;;;;;4.25;1.25;;;;;7.57;64.41;100846.06;6287444;22;45357;-87
2022/02/21 02:56:26;;;;;;;;;5.25;3.75;;;;;7.47;64.36;100821.50;6258410;22;45286;-88
2022/02/21 02:58:52;;;;;;;;;7.00;5.00;;;;;7.55;63.79;100832.06;6288219;22;45279;-88
2022/02/21 03:01:18;;;;;;;;;5.50;3.50;;;;;7.59;63.40;100833.84;6284250;22;45287;-87
2022/02/21 03:03:43;;;;;;;;;6.75;3.75;;;;;7.53;63.17;100821.56;6255883;22;47084;-86
2022/02/21 03:06:09;;;;;;;;;5.25;2.50;;;;;7.56;62.46;100823.34;6283515;22;45180;-87
2022/02/21 03:08:34;;;;;;;;;4.00;3.00;;;;;7.68;62.44;100849.66;6285448;22;45091;-87
2022/02/21 03:11:00;;;;;;;;;4.00;3.00;;;;;7.65;62.27;100837.41;6284133;22;45177;-88
2022/02/21 03:13:25;;;;;;;;;6.00;3.00;;;;;7.58;62.03;100812.00;6257528;22;47890;-87
2022/02/21 03:15:51;;;;;;;;;4.00;1.50;;;;;7.74;61.65;100826.13;6284794;22;45168;-88
2022/02/21 03:18:17;;;;;;;;;4.50;4.00;;;;;7.64;61.68;100806.81;6286412;22;45172;-86
2022/02/21 03:20:42;;;;;;;;;5.00;3.00;;;;;7.79;61.21;100834.91;6284514;22;45442;-86
2022/02/21 03:23:08;;;;;;;;;2.00;2.00;;;;;7.68;61.40;100831.31;6259174;22;47908;-87
2022/02/21 03:25:33;;;;;;;;;6.75;2.50;;;;;7.82;60.77;100837.56;6284556;22;45422;-87
2022/02/21 03:27:59;;;;;;;;;5.75;4.50;;;;;7.73;60.50;100827.00;6257778;22;45305;-87
2022/02/21 03:30:24;;;;;;;;;4.00;2.75;;;;;7.70;60.33;100804.28;6283110;22;45458;-87
2022/02/21 03:32:52;;;;;;;;;6.75;3.00;;;;;7.74;60.31;100815.66;6285614;22;45231;-87
2022/02/21 03:35:17;;;;;;;;;3.00;2.50;;;;;7.76;59.87;100823.53;6257393;22;45353;-88
2022/02/21 03:37:43;;;;;;;;;2.50;2.50;;;;;7.86;60.00;100844.59;6259009;22;45373;-86
2022/02/21 03:40:09;;;;;;;;;4.50;1.50;;;;;7.82;60.10;100839.31;6284985;22;45210;-86
2022/02/21 03:42:35;;;;;;;;;2.75;2.00;;;;;7.86;59.75;100846.34;6283670;22;46488;-87
2022/02/21 03:45:04;;;;;;;;;2.00;2.00;;;;;7.77;60.00;100812.19;6284183;22;45279;-86
2022/02/21 03:47:29;;;;;;;;;7.75;2.00;;;;;7.95;60.16;100835.94;6256391;22;45247;-87
2022/02/21 03:49:55;;;;;;;;;3.75;2.00;;;;;7.78;60.30;100803.44;6256191;22;45409;-87
2022/02/21 03:52:20;;;;;;;;;2.50;2.50;;;;;7.91;60.33;100836.75;6256441;22;45818;-87
2022/02/21 03:54:46;;;;;;;;;3.50;2.75;;;;;7.91;61.08;100845.53;6281540;22;45348;-87
2022/02/21 03:57:12;;;;;;;;;4.25;1.00;;;;;7.85;60.79;100850.69;6284073;22;45361;-86
2022/02/21 03:59:37;;;;;;;;;4.00;2.00;;;;;8.02;61.48;100874.44;6255085;22;45275;-87
2022/02/21 04:02:03;;;;;;;;;5.00;4.00;;;;;7.95;61.96;100849.91;6284711;22;46062;-87
2022/02/21 04:04:28;;;;;;;;;8.25;3.75;;;;;7.98;62.87;100866.53;6284469;22;45184;-87
2022/02/21 04:06:54;;;;;;;;;3.25;2.25;;;;;7.92;62.83;100862.13;6258160;22;45157;-87
2022/02/21 04:09:20;;;;;;;;;2.00;2.00;;;;;7.88;63.13;100837.59;6282920;22;45332;-87
2022/02/21 04:11:45;;;;;;;;;2.00;2.00;;;;;7.80;62.89;100844.53;6284493;22;45251;-88
2022/02/21 04:14:11;;;;;;;;;5.00;1.50;;;;;7.86;62.72;100857.72;6285224;22;45178;-86
2022/02/21 04:16:36;;;;;;;;;3.50;2.50;;;;;7.76;62.94;100861.09;6284661;22;45081;-87
2022/02/21 04:19:02;;;;;;;;;4.25;3.75;;;;;7.85;63.61;100876.91;6255922;22;45188;-87
2022/02/21 04:21:32;;;;;;;;;3.00;3.00;;;;;7.86;63.98;100891.78;6256033;22;47164;-88
2022/02/21 04:23:58;;;;;;;;;4.00;3.00;;;;;7.83;64.04;100872.50;6284669;22;45196;-88
2022/02/21 04:26:24;;;;;;;;;7.25;4.00;;;;;7.81;63.92;100859.41;6286786;22;45126;-87
2022/02/21 04:28:50;;;;;;;;;4.75;2.25;;;;;7.74;63.86;100857.59;6284186;22;45182;-87
2022/02/21 04:31:17;;;;;;;;;6.50;3.00;;;;;7.76;63.73;100862.84;6285149;22;45331;-88
2022/02/21 04:33:46;;;;;;;;;1.25;1.00;;;;;7.60;63.93;100844.34;6256303;22;45207;-87
2022/02/21 04:36:13;;;;;;;;;5.25;2.00;;;;;7.56;63.82;100837.31;6284262;22;45263;-87
2022/02/21 04:38:39;;;;;;;;;4.50;2.00;;;;;7.60;63.83;100838.25;6284575;22;45438;-87
2022/02/21 04:41:04;;;;;;;;;7.50;3.00;;;;;7.60;63.87;100835.63;6256869;22;48122;-87
2022/02/21 04:43:30;;;;;;;;;5.00;4.00;;;;;7.68;63.96;100849.66;6284854;22;45128;-88
2022/02/21 04:45:56;;;;;;;;;4.00;3.00;;;;;7.63;64.09;100836.50;6285021;22;45162;-86
2022/02/21 04:48:22;;;;;;;;;2.25;1.00;;;;;7.64;63.72;100850.47;6257146;22;45573;-87
2022/02/21 04:50:47;;;;;;;;;5.75;2.50;;;;;7.61;63.93;100843.47;6283176;22;47108;-87
2022/02/21 04:53:13;;;;;;;;;1.75;1.00;;;;;7.69;63.73;100840.94;6282532;22;45202;-87
2022/02/21 04:55:38;;;;;;;;;4.00;3.00;;;;;7.58;63.33;100819.00;6257592;22;45785;-88
2022/02/21 04:58:04;;;;;;;;;2.50;2.00;;;;;7.53;63.44;100816.31;6256037;22;45450;-87
2022/02/21 05:00:30;;;;;;;;;3.50;1.00;;;;;7.62;63.43;100833.91;6257902;22;48028;-87
2022/02/21 05:02:55;;;;;;;;;1.25;1.00;;;;;7.73;63.40;100856.72;6284714;22;45325;-89
2022/02/21 05:05:21;;;;;;;;;2.00;2.00;;;;;7.62;63.57;100831.28;6285957;22;45311;-87
2022/02/21 05:07:46;;;;;;;;;4.00;1.00;;;;;7.76;63.15;100855.84;6257391;22;45323;-87
2022/02/21 05:10:12;;;;;;;;;3.50;2.00;;;;;7.76;63.40;100857.59;6285446;22;46219;-88
2022/02/21 05:12:38;;;;;;;;;4.50;2.00;;;;;7.68;63.30;100847.06;6283267;22;45423;-88
2022/02/21 05:15:05;;;;;;;;;2.50;1.25;;;;;7.60;63.27;100857.44;6258984;22;45260;-87
2022/02/21 05:17:31;;;;;;;;;3.00;1.00;;;;;7.69;63.20;100868.00;6287042;22;45170;-87
2022/02/21 05:19:56;;;;;;;;;2.00;1.50;;;;;7.67;63.08;100853.13;6257383;22;48104;-88
2022/02/21 05:22:22;;;;;;;;;2.75;0.00;;;;;7.62;63.51;100841.75;6257998;22;45235;-87
2022/02/21 05:24:48;;;;;;;;;3.50;1.00;;;;;7.71;63.10;100853.19;6259289;22;45192;-90
2022/02/21 05:30:20;;;;;;;;;2.50;1.75;;;;;7.70;62.88;100845.31;6224272;22;45472;-88
2022/02/21 05:32:45;;;;;;;;;1.75;1.75;;;;;7.69;63.30;100843.56;6254529;22;45300;-88
2022/02/21 05:35:11;;;;;;;;;7.50;2.00;;;;;7.60;63.17;100860.06;6255289;22;45363;-87
2022/02/21 05:37:37;;;;;;;;;1.75;1.75;;;;;7.64;62.89;100855.72;6226646;22;45339;-88
2022/02/21 05:40:04;;;;;;;;;3.00;2.00;;;;;7.56;63.02;100834.69;6251863;22;46844;-88
2022/02/21 05:42:30;;;;;;;;;3.75;1.00;;;;;7.61;63.15;100866.19;6226551;22;45127;-87
2022/02/21 05:44:56;;;;;;;;;1.25;0.00;;;;;7.43;63.30;100831.09;6226516;22;45157;-87
2022/02/21 05:47:22;;;;;;;;;1.00;1.00;;;;;7.49;63.49;100866.94;6254101;22;45391;-86
2022/02/21 05:49:47;;;;;;;;;1.75;1.00;;;;;7.42;63.36;100846.78;6227755;22;46501;-86
2022/02/21 05:52:13;;;;;;;;;2.75;1.00;;;;;7.35;63.30;100831.84;6254987;22;45185;-87
2022/02/21 06:03:07;;;;;;;;;;;;;;;;;;;;;
2022/02/21 06:28:31;;;;;;;;;0.50;0.00;;;;;7.10;64.08;100878.69;5659164;25;45452;-89
2022/02/21 06:35:46;;;;;;;;;;;;;;;;;;;;;
2022/02/21 06:46:05;;;;;;;;;0.00;0.00;;;;;7.12;64.29;100916.25;5798515;24;45799;-86
2022/02/21 06:48:30;;;;;;;;;0.00;0.00;;;;;7.04;64.26;100904.81;5936781;23;45256;-84
2022/02/21 06:50:59;;;;;;;;;1.00;1.00;;;;;7.02;64.23;100901.28;6074517;23;45259;-85
2022/02/21 06:53:24;;;;;;;;;0.00;0.00;;;;;6.94;64.38;100903.78;6209739;22;45456;-83
2022/02/21 06:55:49;;;;;;;;;1.00;0.00;;;;;7.06;63.98;100942.34;6220117;22;46840;-85
2022/02/21 06:58:15;;;;;;;;;1.25;0.25;;;;;6.89;64.33;100905.47;6220732;22;45293;-85
2022/02/21 07:00:42;;;;;;;;;0.25;0.00;;;;;6.94;64.73;100936.94;6221155;22;45371;-85
2022/02/21 07:03:08;;;;;;;;;2.25;2.25;;;;;6.93;64.45;100933.44;6248872;22;45375;-85
2022/02/21 07:05:33;;;;;;;;;2.75;1.00;;;;;6.95;64.28;100930.84;6249169;22;46289;-84
2022/02/21 07:07:59;;;;;;;;;1.25;1.00;;;;;6.97;64.38;100936.97;6220925;22;45243;-86
2022/02/21 07:10:24;;;;;;;;;0.00;0.00;;;;;6.99;64.53;100936.13;6249881;22;45125;-85
2022/02/21 07:12:51;;;;;;;;;2.50;1.00;;;;;7.09;64.33;100944.13;6222686;22;45387;-86
2022/02/21 07:15:18;;;;;;;;;1.25;0.75;;;;;7.04;64.22;100944.06;6222839;22;48051;-87
2022/02/21 07:17:47;;;;;;;;;2.75;0.50;;;;;7.01;64.68;100944.03;6223040;22;45348;-89
2022/02/21 07:20:15;;;;;;;;;2.25;1.00;;;;;7.02;64.37;100945.78;6221035;22;45367;-88
2022/02/21 07:22:44;;;;;;;;;2.50;2.00;;;;;7.07;64.20;100954.56;6222302;22;45648;-88
2022/02/21 07:25:20;;;;;;;;;0.75;0.75;;;;;7.07;63.99;100955.44;6221876;22;47790;-89
2022/02/21 07:27:54;;;;;;;;;2.00;1.00;;;;;7.18;64.17;100973.03;6221634;22;45371;-89
2022/02/21 07:30:37;;;;;;;;;;;;;;;;;;;;;
2022/02/21 07:33:07;;;;;;;;;1.50;1.50;;;;;7.17;64.08;100955.59;6281446;22;72416;-88
2022/02/21 07:35:35;;;;;;;;;2.00;0.50;;;;;7.28;63.87;100960.09;6279864;22;47131;-88
2022/02/21 07:38:04;;;;;;;;;1.50;1.00;;;;;7.22;63.76;100932.97;6254335;22;45457;-87
2022/02/21 07:40:32;;;;;;;;;0.75;0.75;;;;;7.16;63.74;100915.41;6281501;22;45353;-89
2022/02/21 07:43:05;;;;;;;;;3.75;3.00;;;;;7.14;63.48;100905.81;6281728;22;45330;-89
2022/02/21 07:45:34;;;;;;;;;3.00;1.00;;;;;7.22;63.60;100925.13;6277563;22;46534;-89
2022/02/21 07:48:05;;;;;;;;;5.00;1.00;;;;;7.43;63.55;100963.75;6253226;22;45349;-88
2022/02/21 07:50:40;;;;;;;;;3.75;1.75;;;;;7.32;63.58;100926.09;6255344;22;45347;-89
2022/02/21 07:53:07;;;;;;;;;1.75;1.75;;;;;7.40;63.34;100934.91;6284046;22;45393;-88
2022/02/21 07:55:40;;;;;;;;;4.50;2.75;;;;;7.51;63.38;100947.31;6283077;22;45423;-89
2022/02/21 07:58:08;;;;;;;;;1.00;1.00;;;;;7.47;63.42;100936.75;6252443;22;45400;-89
2022/02/21 08:00:43;;;;;;;;;3.50;2.25;;;;;7.52;63.39;100932.47;6279581;22;45389;-90
2022/02/21 08:03:09;;;;;;;;;3.00;0.50;;;;;7.51;63.94;100939.44;6251963;22;45761;-89
2022/02/21 08:05:35;;;;;;;;;3.25;2.00;;;;;7.51;64.01;100928.06;6280098;22;47876;-88
2022/02/21 08:08:26;;;;;;;;;3.00;2.25;;;;;7.60;63.91;100941.28;6277345;22;45137;-89
2022/02/21 08:10:56;;;;;;;;;2.25;1.00;;;;;7.66;63.85;100948.34;6279372;22;45399;-90
2022/02/21 08:13:26;;;;;;;;;2.25;1.25;;;;;7.72;63.78;100946.69;6252102;22;45512;-89
2022/02/21 08:18:54;;;;;;;;;4.00;1.75;;;;;7.88;63.56;100950.31;6278336;22;45321;-89
2022/02/21 08:21:19;;;;;;;;;2.00;2.00;;;;;7.91;63.41;100953.00;6253406;22;45432;-87
2022/02/21 08:23:45;;;;;;;;;3.75;2.00;;;;;7.86;63.60;100935.47;6252689;22;45362;-86
2022/02/21 08:26:10;;;;;;;;;3.25;2.50;;;;;8.01;63.28;100960.94;6280381;22;45372;-86
2022/02/21 08:28:36;;;;;;;;;4.75;2.00;;;;;8.03;63.45;100952.22;6276749;22;45370;-85
2022/02/21 08:31:09;;;;;;;;;3.75;2.00;;;;;8.00;63.28;100943.47;6251116;22;45587;-89
2022/02/21 08:33:45;;;;;;;;;;;;;;;;;;;;;
2022/02/21 08:36:13;;;;;;;;;3.50;2.50;;;;;8.02;63.36;100913.78;6277511;22;75309;-89
2022/02/21 08:38:38;;;;;;;;;1.75;1.75;;;;;8.20;62.81;100938.41;6253583;22;45846;-91
2022/02/21 08:41:32;;;;;;;;;3.75;1.50;;;;;8.29;62.91;100955.09;6278215;22;45295;-91
2022/02/21 08:44:35;;;;;;;;;;;;;;;;;;;;;
2022/02/21 08:50:26;;;;;;;;;2.50;2.00;;;;;8.34;62.72;100939.38;6251884;22;45712;-88
2022/02/21 08:52:51;;;;;;;;;1.00;1.00;;;;;8.34;62.59;100929.78;6277410;22;45287;-87
2022/02/21 08:55:18;;;;;;;;;2.25;2.00;;;;;8.49;62.79;100971.03;6279239;22;45262;-88
2022/02/21 08:57:45;;;;;;;;;3.00;3.00;;;;;8.47;62.59;100969.25;6250578;22;47827;-87
2022/02/21 09:00:12;;;;;;;;;2.25;1.25;;;;;8.44;62.24;100966.63;6282492;22;45187;-86
2022/02/21 09:02:38;;;;;;;;;1.00;1.00;;;;;8.57;62.09;100986.84;6251082;22;45165;-86
2022/02/21 09:05:04;;;;;;;;;1.75;1.75;;;;;8.58;61.97;100972.84;6276475;22;45097;-87
2022/02/21 09:07:32;;;;;;;;;2.00;2.00;;;;;8.50;62.11;100954.44;6250497;22;47267;-85
2022/02/21 09:09:59;;;;;;;;;2.00;1.00;;;;;8.76;62.09;100967.75;6251333;22;45409;-86
2022/02/21 09:12:24;;;;;;;;;3.00;1.75;;;;;8.72;61.56;100939.72;6279530;22;45156;-86
2022/02/21 09:14:51;;;;;;;;;3.50;1.50;;;;;8.92;61.14;100988.88;6276519;22;45260;-85
2022/02/21 09:17:18;;;;;;;;;4.50;4.50;;;;;9.00;61.05;100992.41;6278190;22;46049;-85
2022/02/21 09:19:46;;;;;;;;;2.50;2.25;;;;;9.00;60.42;100964.41;6278511;22;45192;-85
2022/02/21 09:22:12;;;;;;;;;4.25;2.75;;;;;9.11;60.45;100969.72;6278744;22;45228;-85
2022/02/21 09:24:38;;;;;;;;;2.75;1.25;;;;;9.14;60.50;100971.50;6278617;22;45359;-84
2022/02/21 09:27:03;;;;;;;;;5.00;2.75;;;;;9.02;59.89;100938.16;6251273;22;47026;-85
2022/02/21 09:29:32;;;;;;;;;3.25;3.25;;;;;9.08;59.84;100930.31;6274004;22;45326;-89
2022/02/21 09:32:00;;;;;;;;;1.25;1.00;;;;;9.03;59.78;100926.78;6250836;22;45148;-88
2022/02/21 09:34:36;;;;;;;;;;;;;;;;;;;;;
2022/02/21 09:37:36;;;;;;;;;2.50;1.00;;;;;9.30;59.35;100982.97;6278139;22;75130;-89
2022/02/21 09:39:53;;;;;;;;;3.00;1.75;;;;;9.30;59.00;100943.56;6272763;22;45198;-90
2022/02/21 09:42:21;;;;;;;;;4.50;1.75;;;;;9.21;59.38;100933.91;6279493;22;45176;-90
2022/02/21 09:48:42;;;;;;;;;3.00;1.50;;;;;9.45;58.75;100938.38;6114345;23;45825;-92
2022/02/21 09:52:07;;;;;;;;;;;;;;;;;;;;;
2022/02/21 10:26:18;;;;;;;;;5.00;3.75;;;;;10.42;53.81;100992.09;6177393;22;45435;-89
2022/02/21 10:28:44;;;;;;;;;4.00;3.00;;;;;10.50;53.96;100994.75;6218687;22;45209;-82
2022/02/21 10:31:39;;;;;;;;;4.25;2.00;;;;;10.42;54.30;100980.72;6217269;22;45185;-82
2022/02/21 10:34:35;;;;;;;;;;;;;;;;;;;;;
2022/02/21 10:37:04;;;;;;;;;2.75;1.00;;;;;10.54;53.86;100973.69;6244046;22;75585;-85
2022/02/21 10:39:31;;;;;;;;;3.00;2.00;;;;;10.66;53.75;100979.84;6245475;22;45310;-81
2022/02/21 10:41:57;;;;;;;;;6.00;3.00;;;;;10.64;53.48;100986.84;6218171;22;45367;-84
2022/02/21 10:44:33;;;;;;;;;7.25;3.50;;;;;10.76;52.74;101010.56;6245150;22;45400;-85
2022/02/21 10:47:17;;;;;;;;;7.00;2.75;;;;;10.80;52.90;101009.69;6216514;22;48008;-83
2022/02/21 10:49:47;;;;;;;;;3.00;3.00;;;;;10.76;52.79;100976.31;6245532;22;45383;-82
2022/02/21 10:52:16;;;;;;;;;3.25;2.00;;;;;10.86;52.66;101009.69;6216877;22;45293;-84
2022/02/21 10:54:42;;;;;;;;;3.00;2.00;;;;;10.99;52.22;101008.78;6216681;22;45226;-83
2022/02/21 10:57:12;;;;;;;;;4.50;3.00;;;;;11.08;51.68;100991.22;6241201;22;47911;-87
2022/02/21 10:59:41;;;;;;;;;2.75;2.75;;;;;11.18;51.69;101014.91;6216725;22;45594;-86
2022/02/21 11:02:23;;;;;;;;;5.25;2.00;;;;;11.26;52.03;101020.16;6219714;22;45324;-88
2022/02/21 11:04:55;;;;;;;;;3.00;1.00;;;;;11.23;51.10;100997.34;6219951;22;45601;-88
2022/02/21 11:07:24;;;;;;;;;5.00;3.00;;;;;11.27;51.08;100999.06;6218318;22;46356;-86
2022/02/21 11:09:58;;;;;;;;;4.75;2.00;;;;;11.31;51.37;100992.06;6217683;22;45386;-86
2022/02/21 11:23:10;;;;;;;;;4.75;3.25;;;;;11.15;51.09;101021.97;5803077;23;45369;-91
2022/02/21 11:25:59;;;;;;;;;2.75;2.75;;;;;11.13;50.80;101024.59;5958574;23;45403;-89
2022/02/21 11:28:48;;;;;;;;;3.00;2.00;;;;;11.02;51.00;100998.25;5952401;23;45576;-92
2022/02/21 11:31:24;;;;;;;;;4.00;2.00;;;;;11.07;50.57;101018.47;5927832;23;47960;-90
2022/02/21 11:34:02;;;;;;;;;8.00;4.75;;;;;11.09;50.83;101029.84;6156091;22;45472;-90
2022/02/21 11:36:41;;;;;;;;;;;;;;;;;;;;;
2022/02/21 11:39:27;;;;;;;;;2.50;2.50;;;;;11.17;51.55;101060.59;6252613;22;71321;-88
2022/02/21 11:42:24;;;;;;;;;4.75;3.75;;;;;11.10;51.56;101074.66;6250621;22;46637;-90
2022/02/21 11:45:18;;;;;;;;;3.00;2.50;;;;;11.07;51.86;101077.28;6220567;22;45294;-92
2022/02/21 11:47:56;;;;;;;;;;;;;;;;;;;;;
2022/02/21 11:57:04;;;;;;;;;8.75;5.00;;;;;11.17;53.84;101068.50;6184379;22;45587;-87
2022/02/21 12:00:21;;;;;;;;;;;;;;;;;;;;;
2022/02/21 12:06:33;;;;;;;;;;;;;;;;;;;;;
2022/02/21 12:09:06;;;;;;;;;6.50;6.00;;;;;10.96;55.62;101085.19;6248837;22;72503;-92
2022/02/21 12:12:21;;;;;;;;;;;;;;;;;;;;;
2022/02/21 12:15:17;;;;;;;;;8.25;3.00;;;;;11.07;56.08;101090.47;6246534;22;70471;-90
2022/02/21 12:17:42;;;;;;;;;7.50;5.00;;;;;11.11;55.87;101081.66;6221308;22;46822;-89
2022/02/21 12:23:33;;;;;;;;;;;;;;;;;;;;;
2022/02/21 12:25:58;;;;;;;;;7.00;5.00;;;;;11.45;53.93;101118.53;6242198;22;71932;-87
2022/02/21 12:28:26;;;;;;;;;5.75;2.00;;;;;11.34;54.04;101100.09;6250451;22;45546;-88
2022/02/21 12:30:57;;;;;;;;;6.00;3.25;;;;;11.20;54.12;101109.75;6223257;22;45539;-89
2022/02/21 12:33:25;;;;;;;;;4.50;3.00;;;;;11.15;54.21;101095.75;6246501;22;45533;-86
2022/02/21 12:35:53;;;;;;;;;6.25;4.00;;;;;10.98;54.11;101085.19;6248448;22;45421;-85
2022/02/21 12:38:20;;;;;;;;;10.50;4.00;;;;;10.90;54.64;101105.38;6246198;22;45350;-85
2022/02/21 12:41:05;;;;;;;;;9.00;4.50;;;;;10.87;55.06;101106.25;6247376;22;45451;-86
2022/02/21 12:43:58;;;;;;;;;3.50;3.25;;;;;10.78;55.47;101101.00;6220065;22;45360;-86
2022/02/21 12:46:24;;;;;;;;;5.75;3.00;;;;;10.76;55.56;101098.34;6220798;22;45233;-87
2022/02/21 12:48:51;;;;;;;;;8.25;6.00;;;;;10.68;55.47;101086.91;6223382;22;47951;-85
2022/02/21 12:51:24;;;;;;;;;7.25;4.50;;;;;10.74;55.37;101113.25;6245910;22;45340;-87
2022/02/21 12:54:03;;;;;;;;;6.00;3.00;;;;;10.72;55.03;101072.91;6244418;22;45451;-85
2022/02/21 12:56:32;;;;;;;;;4.75;3.50;;;;;10.63;54.88;101087.78;6219962;22;45459;-86
2022/02/21 12:58:57;;;;;;;;;4.00;3.00;;;;;10.59;54.78;101072.00;6219378;22;46802;-89
2022/02/21 13:01:23;;;;;;;;;9.25;6.00;;;;;10.64;54.93;101079.00;6221816;22;45316;-87
2022/02/21 13:03:56;;;;;;;;;6.75;4.25;;;;;10.74;54.80;101086.03;6219119;22;45167;-90
2022/02/21 13:06:23;;;;;;;;;8.00;7.25;;;;;10.74;54.53;101078.16;6247374;22;45256;-87
2022/02/21 13:08:51;;;;;;;;;6.25;4.25;;;;;10.76;54.36;101066.72;6220285;22;47197;-88
2022/02/21 13:11:27;;;;;;;;;4.00;3.25;;;;;10.78;54.15;101079.91;6247474;22;45307;-87
2022/02/21 13:13:54;;;;;;;;;7.50;4.00;;;;;10.80;53.34;101057.97;6249403;22;45315;-89
2022/02/21 13:16:22;;;;;;;;;5.00;4.50;;;;;10.90;53.45;101066.72;6247713;22;45283;-90
2022/02/21 13:18:56;;;;;;;;;7.75;6.00;;;;;10.97;53.29;101083.44;6247632;22;46293;-86
2022/02/21 13:21:30;;;;;;;;;6.00;6.00;;;;;10.96;53.05;101069.41;6247434;22;45360;-87
2022/02/21 13:23:56;;;;;;;;;6.75;5.00;;;;;11.08;52.78;101071.13;6243537;22;45436;-85
2022/02/21 13:26:22;;;;;;;;;7.75;3.75;;;;;11.07;52.36;101079.94;6247057;22;45249;-87
2022/02/21 13:28:48;;;;;;;;;5.50;4.00;;;;;11.00;52.42;101091.34;6247278;22;46128;-86
2022/02/21 13:31:14;;;;;;;;;7.25;4.75;;;;;11.03;52.20;101081.66;6245132;22;45228;-84
2022/02/21 13:33:41;;;;;;;;;4.00;4.00;;;;;11.06;51.85;101085.19;6246943;22;45197;-86
2022/02/21 13:36:07;;;;;;;;;5.50;4.25;;;;;10.93;52.02;101074.66;6219566;22;45478;-88
2022/02/21 13:38:33;;;;;;;;;9.50;6.75;;;;;10.95;51.89;101072.88;6252080;22;45371;-85
2022/02/21 13:41:01;;;;;;;;;9.50;4.50;;;;;11.01;51.87;101075.53;6220588;22;45390;-90
2022/02/21 13:43:27;;;;;;;;;6.00;6.00;;;;;11.06;51.99;101077.28;6249283;22;45312;-87
2022/02/21 13:45:53;;;;;;;;;8.00;3.75;;;;;11.03;51.62;101080.78;6246674;22;45240;-86
2022/02/21 13:48:23;;;;;;;;;6.00;5.00;;;;;11.00;51.97;101073.75;6224546;22;46814;-87
2022/02/21 13:50:57;;;;;;;;;9.00;5.25;;;;;11.09;51.97;101083.41;6223923;22;45732;-89
2022/02/21 13:53:33;;;;;;;;;9.25;4.25;;;;;11.12;51.75;101082.53;6222454;22;45301;-90
2022/02/21 13:56:16;;;;;;;;;9.25;5.25;;;;;11.08;51.28;101084.31;6225835;22;45495;-88
2022/02/21 13:58:55;;;;;;;;;9.50;3.50;;;;;11.09;51.46;101096.59;6224735;22;48371;-89
2022/02/21 14:01:27;;;;;;;;;8.00;6.00;;;;;11.06;51.60;101079.91;6250438;22;45320;-88
2022/02/21 14:07:34;;;;;;;;;3.50;3.25;;;;;11.09;51.48;101091.31;6238418;22;45140;-86
2022/02/21 14:10:15;;;;;;;;;7.25;5.00;;;;;11.10;51.45;101116.81;6223991;22;47196;-85
2022/02/21 14:12:57;;;;;;;;;4.00;3.50;;;;;11.18;51.65;101127.34;6218582;22;45390;-86
2022/02/21 14:15:23;;;;;;;;;8.00;6.50;;;;;11.04;51.35;101088.72;6224691;22;45497;-85
2022/02/21 14:17:49;;;;;;;;;3.25;3.00;;;;;11.11;51.65;101112.41;6222233;22;45787;-90
2022/02/21 14:20:14;;;;;;;;;8.75;4.00;;;;;11.13;51.56;101129.97;6227722;22;47428;-86
2022/02/21 14:22:40;;;;;;;;;7.00;4.50;;;;;11.09;51.74;101125.56;6231177;22;44815;-88
2022/02/21 14:25:06;;;;;;;;;10.25;5.50;;;;;11.14;51.98;101112.41;6239631;22;45354;-90